This is the latest recevied weather packets stored in our database for station/object SP4FDH-13. If no packets are shown the sender has not sent any weather packets the latest 10 day(s).
| Time | Temp. | Humidity | Pressure | Rain* | Wind** | Luminosity | Snow |
|---|---|---|---|---|---|---|---|
| 1777375186 | 11.11° C | 66% | 1022.1 hPa | - | - | - | - |
| 1777374609 | 11.11° C | 69% | 1022.2 hPa | - | - | - | - |
| 1777374032 | 10° C | 77% | 1022.5 hPa | - | - | - | - |
| 1777373457 | 10.56° C | 73% | 1022.4 hPa | - | - | - | - |
| 1777372882 | 11.67° C | 65% | 1022.2 hPa | - | - | - | - |
| 1777372306 | 12.78° C | 60% | 1022.1 hPa | - | - | - | - |
| 1777371729 | 13.33° C | 60% | 1021.9 hPa | - | - | - | - |
| 1777371150 | 11.67° C | 77% | 1022.3 hPa | - | - | - | - |
| 1777370573 | 10° C | 83% | 1022.6 hPa | - | - | - | - |
| 1777369999 | 11.11° C | 80% | 1022.5 hPa | - | - | - | - |
| 1777369420 | 9.44° C | 10% | - | - | - | - | - |
| 1777368843 | 7.78° C | 10% | - | - | - | - | - |
| 1777368270 | 8.33° C | 10% | - | - | - | - | - |
| 1777367697 | 10.56° C | 55% | 1022.7 hPa | - | - | - | - |
| 1777367123 | 12.78° C | 45% | 1021.8 hPa | - | - | - | - |
| 1777366546 | 11.67° C | 48% | 1021.9 hPa | - | - | - | - |
| 1777365970 | 12.22° C | 47% | 1021.8 hPa | - | - | - | - |
| 1777365392 | 11.11° C | 50% | 1022.1 hPa | - | - | - | - |
| 1777364817 | 10.56° C | 51% | 1022.3 hPa | - | - | - | - |
| 1777364244 | 11.67° C | 48% | 1022.1 hPa | - | - | - | - |
| 1777363667 | 11.11° C | 47% | 1021.9 hPa | - | - | - | - |
| 1777363092 | 11.67° C | 43% | 1021.7 hPa | - | - | - | - |
| 1777362517 | 12.78° C | 43% | 1021.7 hPa | - | - | - | - |
| 1777361942 | 13.33° C | 43% | 1021.6 hPa | - | - | - | - |
| 1777361365 | 13.33° C | 47% | 1021.8 hPa | - | - | - | - |
* Rain since midnight (hover to see other rain measurements)
** Current wind speed in m/s (hover to see current wind gust speed)